Wellton, Arizona
Current Conditions -  °F | °C
As of 4:57 PM on Friday 21 Nov 2014 (Local Time) from KNYL Reporting Station
Few Clouds Few Clouds  
Wind Chill: 72°   Ceiling: Unl
Heat Index: 72°   Visibility: 10mi
Dew Point: 42°   Wind: 8mph
Humidity: 34%   Direction: 300°WNW
Pressure: 29.89"   Gusts: NA
Location:  32.67°N, 114.15°W
Report Text: KNYL 212357Z 30007KT 10SM FEW040 FEW110 22/06 A2989 RMK AO2 SLP120 T02220056 10233 20200 53004
Loading
Personal Weather Stations






























Interactive Weather Map New forecast layout! Learn more

10-Day Weather Forecast

Advertisements
Track Severe Weather on mobile